sensor_id;sensor_type;location;lat;lon;timestamp;pressure;altitude;pressure_sealevel;temperature;humidity
25638;BME280;13496;51.040;13.680;2024-03-23T00:57:14;98973.47;;;20.00;46.58
25638;BME280;13496;51.040;13.680;2024-03-23T01:02:16;98972.06;;;19.98;46.30
25638;BME280;13496;51.040;13.680;2024-03-23T01:07:18;98978.38;;;19.97;46.36
25638;BME280;13496;51.040;13.680;2024-03-23T01:12:20;98972.94;;;19.92;46.82
25638;BME280;13496;51.040;13.680;2024-03-23T01:17:22;98949.41;;;19.97;46.56
25638;BME280;13496;51.040;13.680;2024-03-23T01:22:23;98940.91;;;19.95;46.45
25638;BME280;13496;51.040;13.680;2024-03-23T01:27:25;98953.06;;;19.96;46.35
25638;BME280;13496;51.040;13.680;2024-03-23T01:32:27;98943.38;;;19.90;46.80
25638;BME280;13496;51.040;13.680;2024-03-23T01:37:29;98940.56;;;19.91;46.48
25638;BME280;13496;51.040;13.680;2024-03-23T01:42:30;98921.53;;;19.89;46.45
25638;BME280;13496;51.040;13.680;2024-03-23T01:47:32;98916.03;;;19.91;46.67
25638;BME280;13496;51.040;13.680;2024-03-23T01:52:35;98908.13;;;19.91;46.42
25638;BME280;13496;51.040;13.680;2024-03-23T01:57:37;98908.72;;;19.93;46.62
25638;BME280;13496;51.040;13.680;2024-03-23T02:02:45;98892.34;;;19.91;46.46
25638;BME280;13496;51.040;13.680;2024-03-23T02:07:47;98895.78;;;19.91;46.76
25638;BME280;13496;51.040;13.680;2024-03-23T02:12:49;98885.47;;;19.90;46.83
25638;BME280;13496;51.040;13.680;2024-03-23T02:17:51;98867.28;;;19.88;46.37
25638;BME280;13496;51.040;13.680;2024-03-23T02:22:55;98864.03;;;19.86;46.48
25638;BME280;13496;51.040;13.680;2024-03-23T02:27:57;98865.22;;;19.90;46.71
25638;BME280;13496;51.040;13.680;2024-03-23T02:33:00;98852.47;;;19.87;46.43
25638;BME280;13496;51.040;13.680;2024-03-23T02:38:02;98849.28;;;19.85;46.42
25638;BME280;13496;51.040;13.680;2024-03-23T02:43:04;98847.44;;;19.86;46.55
25638;BME280;13496;51.040;13.680;2024-03-23T02:48:06;98841.38;;;19.85;46.62
25638;BME280;13496;51.040;13.680;2024-03-23T02:53:08;98842.41;;;19.84;46.83
25638;BME280;13496;51.040;13.680;2024-03-23T02:58:10;98832.69;;;19.85;46.71
25638;BME280;13496;51.040;13.680;2024-03-23T03:03:12;98830.03;;;19.85;46.70
25638;BME280;13496;51.040;13.680;2024-03-23T03:08:13;98820.50;;;19.83;46.71
25638;BME280;13496;51.040;13.680;2024-03-23T03:13:15;98803.13;;;19.82;46.40
25638;BME280;13496;51.040;13.680;2024-03-23T03:18:17;98790.75;;;19.83;46.32
25638;BME280;13496;51.040;13.680;2024-03-23T03:23:20;98802.91;;;19.84;46.64
25638;BME280;13496;51.040;13.680;2024-03-23T03:28:22;98792.59;;;19.82;46.48
25638;BME280;13496;51.040;13.680;2024-03-23T03:33:23;98785.50;;;19.83;46.66
25638;BME280;13496;51.040;13.680;2024-03-23T03:38:25;98789.97;;;19.82;46.33
25638;BME280;13496;51.040;13.680;2024-03-23T03:43:27;98772.56;;;19.81;46.48
25638;BME280;13496;51.040;13.680;2024-03-23T03:48:29;98776.06;;;19.75;46.81
25638;BME280;13496;51.040;13.680;2024-03-23T03:53:31;98757.44;;;19.77;46.51
25638;BME280;13496;51.040;13.680;2024-03-23T03:58:33;98760.88;;;19.77;46.80
25638;BME280;13496;51.040;13.680;2024-03-23T04:03:35;98753.19;;;19.76;46.54
25638;BME280;13496;51.040;13.680;2024-03-23T04:08:37;98741.84;;;19.75;46.63
25638;BME280;13496;51.040;13.680;2024-03-23T04:13:38;98732.13;;;19.76;46.43
25638;BME280;13496;51.040;13.680;2024-03-23T04:18:43;98724.47;;;19.74;46.59
25638;BME280;13496;51.040;13.680;2024-03-23T04:23:45;98713.94;;;19.74;46.47
25638;BME280;13496;51.040;13.680;2024-03-23T04:28:47;98702.38;;;19.75;46.38
25638;BME280;13496;51.040;13.680;2024-03-23T04:33:49;98693.47;;;19.76;46.80
25638;BME280;13496;51.040;13.680;2024-03-23T04:38:51;98696.09;;;19.76;46.59
25638;BME280;13496;51.040;13.680;2024-03-23T04:43:54;98695.06;;;19.77;46.66
25638;BME280;13496;51.040;13.680;2024-03-23T04:48:56;98697.69;;;19.77;46.45
25638;BME280;13496;51.040;13.680;2024-03-23T04:53:58;98655.59;;;19.77;46.55
25638;BME280;13496;51.040;13.680;2024-03-23T04:59:00;98633.16;;;19.75;46.74
25638;BME280;13496;51.040;13.680;2024-03-23T05:04:03;98624.44;;;19.74;46.62
25638;BME280;13496;51.040;13.680;2024-03-23T05:09:05;98603.41;;;19.74;46.50
25638;BME280;13496;51.040;13.680;2024-03-23T05:14:08;98605.00;;;19.75;46.50
25638;BME280;13496;51.040;13.680;2024-03-23T05:19:10;98617.78;;;19.72;46.77
25638;BME280;13496;51.040;13.680;2024-03-23T05:24:12;98596.09;;;19.76;46.55
25638;BME280;13496;51.040;13.680;2024-03-23T05:29:13;98566.31;;;19.76;46.54
25638;BME280;13496;51.040;13.680;2024-03-23T05:34:16;98597.53;;;19.72;46.55
25638;BME280;13496;51.040;13.680;2024-03-23T05:39:17;98573.28;;;19.70;46.58
25638;BME280;13496;51.040;13.680;2024-03-23T05:44:19;98579.94;;;19.73;46.94
25638;BME280;13496;51.040;13.680;2024-03-23T05:49:21;98571.47;;;19.71;46.69
25638;BME280;13496;51.040;13.680;2024-03-23T05:54:23;98561.72;;;19.71;46.40
25638;BME280;13496;51.040;13.680;2024-03-23T05:59:25;98545.94;;;19.71;46.59
25638;BME280;13496;51.040;13.680;2024-03-23T06:04:27;98524.69;;;19.73;46.66
25638;BME280;13496;51.040;13.680;2024-03-23T06:09:29;98514.38;;;19.71;46.70
25638;BME280;13496;51.040;13.680;2024-03-23T06:14:33;98500.16;;;19.72;46.51
25638;BME280;13496;51.040;13.680;2024-03-23T06:19:35;98488.84;;;19.72;46.57
25638;BME280;13496;51.040;13.680;2024-03-23T06:24:37;98488.63;;;19.73;46.56
25638;BME280;13496;51.040;13.680;2024-03-23T06:29:39;98479.69;;;19.74;46.81
25638;BME280;13496;51.040;13.680;2024-03-23T06:34:44;98463.31;;;19.72;46.88
25638;BME280;13496;51.040;13.680;2024-03-23T06:39:46;98448.00;;;19.69;46.98
25638;BME280;13496;51.040;13.680;2024-03-23T06:44:48;98432.22;;;19.69;46.77
25638;BME280;13496;51.040;13.680;2024-03-23T06:49:50;98431.41;;;19.69;46.64
25638;BME280;13496;51.040;13.680;2024-03-23T06:54:51;98408.75;;;19.68;46.97
25638;BME280;13496;51.040;13.680;2024-03-23T06:59:53;98424.31;;;19.69;46.99
25638;BME280;13496;51.040;13.680;2024-03-23T07:04:55;98414.59;;;19.70;46.89
25638;BME280;13496;51.040;13.680;2024-03-23T07:09:57;98421.13;;;19.67;47.05
25638;BME280;13496;51.040;13.680;2024-03-23T07:14:58;98425.94;;;19.70;46.92
25638;BME280;13496;51.040;13.680;2024-03-23T07:20:03;98403.72;;;19.66;47.14
25638;BME280;13496;51.040;13.680;2024-03-23T07:25:06;98378.31;;;19.72;47.12
25638;BME280;13496;51.040;13.680;2024-03-23T07:30:08;98388.84;;;19.72;46.54
25638;BME280;13496;51.040;13.680;2024-03-23T07:35:10;98363.31;;;19.72;47.14
25638;BME280;13496;51.040;13.680;2024-03-23T07:40:12;98354.28;;;19.68;47.29
25638;BME280;13496;51.040;13.680;2024-03-23T07:45:14;98343.31;;;19.71;46.78
25638;BME280;13496;51.040;13.680;2024-03-23T07:50:16;98335.41;;;19.71;47.03
25638;BME280;13496;51.040;13.680;2024-03-23T07:55:18;98322.84;;;19.73;46.77
25638;BME280;13496;51.040;13.680;2024-03-23T08:00:20;98316.78;;;19.73;47.13
25638;BME280;13496;51.040;13.680;2024-03-23T08:05:22;98293.66;;;19.75;47.13
25638;BME280;13496;51.040;13.680;2024-03-23T08:10:23;98289.19;;;19.75;47.24
25638;BME280;13496;51.040;13.680;2024-03-23T08:15:25;98266.09;;;19.77;47.03
25638;BME280;13496;51.040;13.680;2024-03-23T08:20:27;98253.47;;;19.79;46.89
25638;BME280;13496;51.040;13.680;2024-03-23T08:25:31;98250.97;;;19.85;46.78
25638;BME280;13496;51.040;13.680;2024-03-23T08:30:34;98242.59;;;19.88;46.70
25638;BME280;13496;51.040;13.680;2024-03-23T08:35:36;98231.50;;;19.86;47.24
25638;BME280;13496;51.040;13.680;2024-03-23T08:40:38;98239.16;;;19.87;47.01
25638;BME280;13496;51.040;13.680;2024-03-23T08:45:40;98237.81;;;19.85;47.10
25638;BME280;13496;51.040;13.680;2024-03-23T08:50:42;98235.97;;;19.85;46.92
25638;BME280;13496;51.040;13.680;2024-03-23T08:55:53;98230.47;;;19.87;47.03
25638;BME280;13496;51.040;13.680;2024-03-23T09:00:56;98223.69;;;19.91;47.19
25638;BME280;13496;51.040;13.680;2024-03-23T09:05:59;98224.28;;;19.93;47.40
25638;BME280;13496;51.040;13.680;2024-03-23T09:11:04;98208.72;;;19.91;47.05
25638;BME280;13496;51.040;13.680;2024-03-23T09:16:07;98226.66;;;19.94;47.06
25638;BME280;13496;51.040;13.680;2024-03-23T09:21:12;98230.09;;;19.95;47.38
25638;BME280;13496;51.040;13.680;2024-03-23T09:26:14;98227.44;;;19.95;47.58
25638;BME280;13496;51.040;13.680;2024-03-23T09:31:17;98240.63;;;19.95;47.40
25638;BME280;13496;51.040;13.680;2024-03-23T09:36:19;98260.88;;;19.94;47.57
25638;BME280;13496;51.040;13.680;2024-03-23T09:41:20;98300.94;;;19.96;47.25
25638;BME280;13496;51.040;13.680;2024-03-23T09:46:22;98322.00;;;19.96;47.48
25638;BME280;13496;51.040;13.680;2024-03-23T09:51:24;98340.66;;;19.95;47.55
25638;BME280;13496;51.040;13.680;2024-03-23T09:56:26;98409.34;;;19.93;47.31
25638;BME280;13496;51.040;13.680;2024-03-23T10:01:30;98419.63;;;19.95;47.25
25638;BME280;13496;51.040;13.680;2024-03-23T10:06:32;98447.56;;;19.96;47.40
25638;BME280;13496;51.040;13.680;2024-03-23T10:11:33;98488.06;;;19.95;47.42
25638;BME280;13496;51.040;13.680;2024-03-23T10:16:35;98531.03;;;19.95;47.52
25638;BME280;13496;51.040;13.680;2024-03-23T10:21:37;98567.63;;;19.97;47.50
25638;BME280;13496;51.040;13.680;2024-03-23T10:26:39;98589.72;;;19.96;47.72
25638;BME280;13496;51.040;13.680;2024-03-23T10:31:41;98616.06;;;19.96;47.37
25638;BME280;13496;51.040;13.680;2024-03-23T10:36:43;98649.25;;;19.97;47.29
25638;BME280;13496;51.040;13.680;2024-03-23T10:41:48;98690.56;;;19.96;47.59
25638;BME280;13496;51.040;13.680;2024-03-23T10:46:51;98713.25;;;19.97;47.19
25638;BME280;13496;51.040;13.680;2024-03-23T10:52:02;98734.97;;;19.93;47.74
25638;BME280;13496;51.040;13.680;2024-03-23T11:02:06;98781.13;;;19.95;47.44
25638;BME280;13496;51.040;13.680;2024-03-23T11:07:29;98790.25;;;19.93;47.24
25638;BME280;13496;51.040;13.680;2024-03-23T11:12:31;98804.00;;;19.95;47.36
25638;BME280;13496;51.040;13.680;2024-03-23T11:17:34;98784.56;;;19.96;47.21
25638;BME280;13496;51.040;13.680;2024-03-23T11:22:47;98797.84;;;20.01;47.33
25638;BME280;13496;51.040;13.680;2024-03-23T11:28:10;98797.41;;;20.04;47.07
25638;BME280;13496;51.040;13.680;2024-03-23T11:33:12;98803.47;;;20.04;47.35
25638;BME280;13496;51.040;13.680;2024-03-23T11:38:15;98811.38;;;20.04;47.42
25638;BME280;13496;51.040;13.680;2024-03-23T11:43:20;98834.28;;;20.04;47.37
25638;BME280;13496;51.040;13.680;2024-03-23T11:48:23;98842.78;;;20.06;47.33
25638;BME280;13496;51.040;13.680;2024-03-23T11:53:25;98852.84;;;20.09;46.98
25638;BME280;13496;51.040;13.680;2024-03-23T11:58:31;98852.84;;;20.09;46.99
25638;BME280;13496;51.040;13.680;2024-03-23T12:03:34;98843.47;;;20.13;47.29
25638;BME280;13496;51.040;13.680;2024-03-23T12:08:37;98829.06;;;20.16;47.00
25638;BME280;13496;51.040;13.680;2024-03-23T12:13:41;98825.22;;;20.18;47.24
25638;BME280;13496;51.040;13.680;2024-03-23T12:18:46;98826.44;;;20.16;47.00
25638;BME280;13496;51.040;13.680;2024-03-23T12:23:48;98829.44;;;20.19;47.22
25638;BME280;13496;51.040;13.680;2024-03-23T12:28:51;98845.63;;;20.23;47.04
25638;BME280;13496;51.040;13.680;2024-03-23T12:33:53;98847.00;;;20.25;47.29
25638;BME280;13496;51.040;13.680;2024-03-23T12:38:55;98835.44;;;20.26;47.04
25638;BME280;13496;51.040;13.680;2024-03-23T12:43:57;98820.00;;;20.30;46.93
25638;BME280;13496;51.040;13.680;2024-03-23T12:48:58;98835.56;;;20.31;47.24
25638;BME280;13496;51.040;13.680;2024-03-23T12:54:01;98854.84;;;20.32;47.20
25638;BME280;13496;51.040;13.680;2024-03-23T12:59:03;98876.91;;;20.31;46.99
25638;BME280;13496;51.040;13.680;2024-03-23T13:04:04;98891.34;;;20.28;47.37
25638;BME280;13496;51.040;13.680;2024-03-23T13:09:06;98869.25;;;20.29;47.03
25638;BME280;13496;51.040;13.680;2024-03-23T13:14:08;98855.28;;;20.29;47.41
25638;BME280;13496;51.040;13.680;2024-03-23T13:19:10;98863.97;;;20.29;47.17
25638;BME280;13496;51.040;13.680;2024-03-23T13:24:12;98884.81;;;20.31;47.06
25638;BME280;13496;51.040;13.680;2024-03-23T13:29:13;98917.69;;;20.28;47.15
25638;BME280;13496;51.040;13.680;2024-03-23T13:34:16;98931.44;;;20.30;47.32
25638;BME280;13496;51.040;13.680;2024-03-23T13:39:18;98933.50;;;20.28;47.24
25638;BME280;13496;51.040;13.680;2024-03-23T13:44:19;98913.00;;;20.30;47.09
25638;BME280;13496;51.040;13.680;2024-03-23T13:49:31;98901.22;;;20.33;47.18
25638;BME280;13496;51.040;13.680;2024-03-23T13:54:36;98878.31;;;20.34;47.27
25638;BME280;13496;51.040;13.680;2024-03-23T13:59:38;98885.19;;;20.35;47.24
25638;BME280;13496;51.040;13.680;2024-03-23T14:04:40;98874.44;;;20.36;47.18
25638;BME280;13496;51.040;13.680;2024-03-23T14:09:42;98872.00;;;20.35;47.22
25638;BME280;13496;51.040;13.680;2024-03-23T14:14:43;98883.16;;;20.37;47.08
25638;BME280;13496;51.040;13.680;2024-03-23T14:19:45;98901.34;;;20.38;47.27
25638;BME280;13496;51.040;13.680;2024-03-23T14:24:47;98911.91;;;20.38;47.19
25638;BME280;13496;51.040;13.680;2024-03-23T14:29:49;98904.00;;;20.38;47.33
25638;BME280;13496;51.040;13.680;2024-03-23T14:34:51;98900.56;;;20.38;47.41
25638;BME280;13496;51.040;13.680;2024-03-23T14:39:56;98898.53;;;20.40;47.51
25638;BME280;13496;51.040;13.680;2024-03-23T14:44:58;98881.09;;;20.39;47.53
25638;BME280;13496;51.040;13.680;2024-03-23T14:50:00;98880.06;;;20.40;47.32
25638;BME280;13496;51.040;13.680;2024-03-23T14:55:02;98876.41;;;20.41;47.65
25638;BME280;13496;51.040;13.680;2024-03-23T15:00:07;98871.94;;;20.41;47.53
25638;BME280;13496;51.040;13.680;2024-03-23T15:05:09;98868.50;;;20.41;47.77
25638;BME280;13496;51.040;13.680;2024-03-23T15:10:11;98865.88;;;20.41;47.56
25638;BME280;13496;51.040;13.680;2024-03-23T15:15:13;98863.22;;;20.41;47.91
25638;BME280;13496;51.040;13.680;2024-03-23T15:20:17;98853.06;;;20.44;47.79
25638;BME280;13496;51.040;13.680;2024-03-23T15:25:19;98848.00;;;20.43;47.82
25638;BME280;13496;51.040;13.680;2024-03-23T15:30:21;98840.91;;;20.43;47.83
25638;BME280;13496;51.040;13.680;2024-03-23T15:35:23;98838.28;;;20.43;47.93
25638;BME280;13496;51.040;13.680;2024-03-23T15:40:25;98832.78;;;20.45;47.89
25638;BME280;13496;51.040;13.680;2024-03-23T15:45:26;98834.63;;;20.44;47.96
25638;BME280;13496;51.040;13.680;2024-03-23T15:50:28;98821.66;;;20.43;48.18
25638;BME280;13496;51.040;13.680;2024-03-23T15:55:30;98812.72;;;20.44;48.11
25638;BME280;13496;51.040;13.680;2024-03-23T16:00:32;98818.22;;;20.42;48.45
25638;BME280;13496;51.040;13.680;2024-03-23T16:05:33;98812.38;;;20.40;48.62
25638;BME280;13496;51.040;13.680;2024-03-23T16:10:35;98822.91;;;20.40;48.44
25638;BME280;13496;51.040;13.680;2024-03-23T16:15:37;98832.66;;;20.40;48.69
25638;BME280;13496;51.040;13.680;2024-03-23T16:20:39;98846.03;;;20.38;48.63
25638;BME280;13496;51.040;13.680;2024-03-23T16:25:49;98871.34;;;20.39;48.29
25638;BME280;13496;51.040;13.680;2024-03-23T16:31:04;98888.19;;;20.38;48.71
25638;BME280;13496;51.040;13.680;2024-03-23T16:36:09;98898.94;;;20.37;48.60
25638;BME280;13496;51.040;13.680;2024-03-23T16:41:12;98882.13;;;20.38;48.73
25638;BME280;13496;51.040;13.680;2024-03-23T16:46:20;98875.25;;;20.37;48.71
25638;BME280;13496;51.040;13.680;2024-03-23T16:51:22;98884.97;;;20.36;48.78
25638;BME280;13496;51.040;13.680;2024-03-23T16:56:23;98895.72;;;20.35;48.52
25638;BME280;13496;51.040;13.680;2024-03-23T17:01:25;98888.63;;;20.35;48.52
25638;BME280;13496;51.040;13.680;2024-03-23T17:06:28;98890.69;;;20.33;48.37
25638;BME280;13496;51.040;13.680;2024-03-23T17:11:30;98902.03;;;20.34;48.58
25638;BME280;13496;51.040;13.680;2024-03-23T17:16:32;98917.22;;;20.31;48.58
25638;BME280;13496;51.040;13.680;2024-03-23T17:21:34;98904.88;;;20.32;48.63
25638;BME280;13496;51.040;13.680;2024-03-23T17:26:36;98907.72;;;20.30;48.79
25638;BME280;13496;51.040;13.680;2024-03-23T17:31:38;98909.34;;;20.31;48.68
25638;BME280;13496;51.040;13.680;2024-03-23T17:36:40;98902.47;;;20.30;48.56
25638;BME280;13496;51.040;13.680;2024-03-23T17:41:42;98891.91;;;20.30;48.78
25638;BME280;13496;51.040;13.680;2024-03-23T17:46:44;98898.00;;;20.31;48.73
25638;BME280;13496;51.040;13.680;2024-03-23T17:51:45;98890.53;;;20.28;48.61
25638;BME280;13496;51.040;13.680;2024-03-23T17:56:47;98887.09;;;20.27;48.72
25638;BME280;13496;51.040;13.680;2024-03-23T18:01:49;98908.16;;;20.27;48.83
25638;BME280;13496;51.040;13.680;2024-03-23T18:06:51;98906.56;;;20.26;48.70
25638;BME280;13496;51.040;13.680;2024-03-23T18:11:53;98902.88;;;20.27;48.85
25638;BME280;13496;51.040;13.680;2024-03-23T18:16:55;98910.22;;;20.25;48.84
25638;BME280;13496;51.040;13.680;2024-03-23T18:21:57;98910.22;;;20.25;48.64
25638;BME280;13496;51.040;13.680;2024-03-23T18:26:59;98907.00;;;20.23;48.75
25638;BME280;13496;51.040;13.680;2024-03-23T18:32:00;98911.47;;;20.23;49.10
25638;BME280;13496;51.040;13.680;2024-03-23T18:37:02;98921.75;;;20.24;49.11
25638;BME280;13496;51.040;13.680;2024-03-23T18:42:04;98911.47;;;20.23;49.39
25638;BME280;13496;51.040;13.680;2024-03-23T18:47:07;98903.78;;;20.21;49.36
25638;BME280;13496;51.040;13.680;2024-03-23T18:52:09;98910.66;;;20.22;49.78
25638;BME280;13496;51.040;13.680;2024-03-23T18:57:10;98914.91;;;20.23;50.14
25638;BME280;13496;51.040;13.680;2024-03-23T19:02:12;98901.72;;;20.23;49.77
25638;BME280;13496;51.040;13.680;2024-03-23T19:07:14;98896.47;;;20.23;50.32
25638;BME280;13496;51.040;13.680;2024-03-23T19:12:16;98905.38;;;20.22;50.13
25638;BME280;13496;51.040;13.680;2024-03-23T19:17:18;98896.69;;;20.22;49.87
25638;BME280;13496;51.040;13.680;2024-03-23T19:22:20;98904.59;;;20.22;50.35
25638;BME280;13496;51.040;13.680;2024-03-23T19:27:24;98900.13;;;20.22;50.36
25638;BME280;13496;51.040;13.680;2024-03-23T19:32:26;98893.25;;;20.21;50.28
25638;BME280;13496;51.040;13.680;2024-03-23T19:37:28;98892.41;;;20.21;50.27
25638;BME280;13496;51.040;13.680;2024-03-23T19:42:30;98896.88;;;20.20;50.07
25638;BME280;13496;51.040;13.680;2024-03-23T19:47:32;98900.31;;;20.21;50.14
25638;BME280;13496;51.040;13.680;2024-03-23T19:52:35;98894.25;;;20.20;50.19
25638;BME280;13496;51.040;13.680;2024-03-23T19:57:37;98890.03;;;20.19;50.05
25638;BME280;13496;51.040;13.680;2024-03-23T20:02:39;98888.19;;;20.20;50.19
25638;BME280;13496;51.040;13.680;2024-03-23T20:07:41;98890.25;;;20.18;50.01
25638;BME280;13496;51.040;13.680;2024-03-23T20:12:43;98891.84;;;20.19;50.21
25638;BME280;13496;51.040;13.680;2024-03-23T20:17:45;98903.44;;;20.18;50.02
25638;BME280;13496;51.040;13.680;2024-03-23T20:22:47;98892.09;;;20.17;50.10
25638;BME280;13496;51.040;13.680;2024-03-23T20:27:48;98895.72;;;20.16;50.23
25638;BME280;13496;51.040;13.680;2024-03-23T20:32:50;98895.72;;;20.16;50.41
25638;BME280;13496;51.040;13.680;2024-03-23T20:37:52;98894.13;;;20.15;50.30
25638;BME280;13496;51.040;13.680;2024-03-23T20:42:54;98890.44;;;20.16;50.29
25638;BME280;13496;51.040;13.680;2024-03-23T20:47:56;98894.13;;;20.15;50.50
25638;BME280;13496;51.040;13.680;2024-03-23T20:52:57;98885.41;;;20.15;50.10
25638;BME280;13496;51.040;13.680;2024-03-23T20:58:00;98876.72;;;20.14;49.97
25638;BME280;13496;51.040;13.680;2024-03-23T21:03:02;98875.91;;;20.14;50.07
25638;BME280;13496;51.040;13.680;2024-03-23T21:08:04;98873.47;;;20.12;50.08
25638;BME280;13496;51.040;13.680;2024-03-23T21:13:06;98867.41;;;20.12;50.37
25638;BME280;13496;51.040;13.680;2024-03-23T21:18:08;98860.53;;;20.11;50.08
25638;BME280;13496;51.040;13.680;2024-03-23T21:23:10;98868.66;;;20.09;49.92
25638;BME280;13496;51.040;13.680;2024-03-23T21:28:12;98870.47;;;20.09;50.00
25638;BME280;13496;51.040;13.680;2024-03-23T21:33:14;98862.59;;;20.09;50.11
25638;BME280;13496;51.040;13.680;2024-03-23T21:38:15;98862.81;;;20.07;50.09
25638;BME280;13496;51.040;13.680;2024-03-23T21:43:17;98854.13;;;20.06;50.09
25638;BME280;13496;51.040;13.680;2024-03-23T21:48:19;98853.31;;;20.06;49.72
25638;BME280;13496;51.040;13.680;2024-03-23T21:53:21;98845.63;;;20.04;49.93
25638;BME280;13496;51.040;13.680;2024-03-23T21:58:24;98845.03;;;20.02;49.68
25638;BME280;13496;51.040;13.680;2024-03-23T22:03:26;98848.47;;;20.03;49.67
25638;BME280;13496;51.040;13.680;2024-03-23T22:08:28;98853.16;;;20.01;50.01
25638;BME280;13496;51.040;13.680;2024-03-23T22:13:31;98850.50;;;20.01;49.76
25638;BME280;13496;51.040;13.680;2024-03-23T22:18:33;98847.09;;;20.00;49.88
25638;BME280;13496;51.040;13.680;2024-03-23T22:23:35;98848.31;;;19.98;50.09
25638;BME280;13496;51.040;13.680;2024-03-23T22:28:36;98844.88;;;19.97;49.70
25638;BME280;13496;51.040;13.680;2024-03-23T22:33:38;98848.53;;;19.96;49.64
25638;BME280;13496;51.040;13.680;2024-03-23T22:38:40;98840.41;;;19.98;49.88
25638;BME280;13496;51.040;13.680;2024-03-23T22:43:42;98837.22;;;19.96;49.45
25638;BME280;13496;51.040;13.680;2024-03-23T22:48:44;98837.41;;;19.94;49.83
25638;BME280;13496;51.040;13.680;2024-03-23T22:53:45;98837.66;;;19.93;49.61
25638;BME280;13496;51.040;13.680;2024-03-23T22:58:47;98829.16;;;19.91;49.52
25638;BME280;13496;51.040;13.680;2024-03-23T23:03:49;98828.16;;;19.92;49.48
25638;BME280;13496;51.040;13.680;2024-03-23T23:08:51;98826.31;;;19.92;49.38
25638;BME280;13496;51.040;13.680;2024-03-23T23:13:53;98822.88;;;19.92;49.53
25638;BME280;13496;51.040;13.680;2024-03-23T23:18:55;98819.44;;;19.91;49.41
25638;BME280;13496;51.040;13.680;2024-03-23T23:23:57;98817.81;;;19.90;49.58
25638;BME280;13496;51.040;13.680;2024-03-23T23:29:00;98814.63;;;19.88;49.40
25638;BME280;13496;51.040;13.680;2024-03-23T23:34:02;98813.00;;;19.87;49.37
25638;BME280;13496;51.040;13.680;2024-03-23T23:39:04;98817.69;;;19.85;49.33
25638;BME280;13496;51.040;13.680;2024-03-23T23:44:06;98812.41;;;19.85;49.48
25638;BME280;13496;51.040;13.680;2024-03-23T23:49:07;98804.72;;;19.83;49.41
25638;BME280;13496;51.040;13.680;2024-03-23T23:54:09;98801.28;;;19.83;49.41
25638;BME280;13496;51.040;13.680;2024-03-23T23:59:11;98800.50;;;19.82;49.12
